Time;durP1;ratioP1;P1;durP2;ratioP2;P2;SDS_P1;SDS_P2;PMS_P1;PMS_P2;Temp;Humidity;BMP_temperature;BMP_pressure;BME280_temperature;BME280_humidity;BME280_pressure;Samples;Min_cycle;Max_cycle;Signal;HPM_P1;HPM_P2
2022/01/01 00:01:41;;;;;;;25.70;21.10;;;;;;;9.84;100.00;98890.84;101550;1307;69690;-73
2022/01/01 00:04:08;;;;;;;25.10;20.90;;;;;;;9.86;100.00;98898.52;101513;1307;75021;-72
2022/01/01 00:06:35;;;;;;;22.80;18.50;;;;;;;9.87;100.00;98901.15;101395;1306;61253;-72
2022/01/01 00:09:03;;;;;;;23.60;18.10;;;;;;;9.87;100.00;98897.90;101415;1306;61323;-72
2022/01/01 00:11:29;;;;;;;23.30;17.80;;;;;;;9.89;100.00;98904.17;101373;1306;74546;-72
2022/01/01 00:13:56;;;;;;;21.30;17.00;;;;;;;9.89;100.00;98904.33;101394;1307;69160;-72
2022/01/01 00:16:22;;;;;;;19.80;16.20;;;;;;;9.89;100.00;98907.52;101332;1307;73322;-73
2022/01/01 00:18:50;;;;;;;24.00;16.30;;;;;;;9.89;100.00;98911.09;101360;1307;61242;-72
2022/01/01 00:21:17;;;;;;;18.40;14.20;;;;;;;9.89;100.00;98911.79;101397;1306;61953;-72
2022/01/01 00:23:43;;;;;;;19.90;14.60;;;;;;;9.89;100.00;98912.72;101351;1310;61289;-72
2022/01/01 00:26:10;;;;;;;17.20;14.00;;;;;;;9.84;100.00;98913.38;101413;1306;70064;-72
2022/01/01 00:28:36;;;;;;;15.50;12.10;;;;;;;9.80;100.00;98914.33;101423;1306;73551;-72
2022/01/01 00:31:03;;;;;;;16.90;12.40;;;;;;;9.78;100.00;98916.95;101413;1306;61719;-72
2022/01/01 00:33:29;;;;;;;16.60;12.10;;;;;;;9.75;100.00;98914.30;101387;1306;61278;-72
2022/01/01 00:35:56;;;;;;;17.00;12.90;;;;;;;9.71;100.00;98913.33;101548;1306;61460;-72
2022/01/01 00:38:24;;;;;;;17.40;13.40;;;;;;;9.67;100.00;98910.21;100885;1312;68891;-73
2022/01/01 00:40:51;;;;;;;17.40;13.40;;;;;;;9.63;100.00;98911.38;101006;1310;73220;-73
2022/01/01 00:43:18;;;;;;;14.30;12.10;;;;;;;9.58;100.00;98917.70;101023;1310;61305;-73
2022/01/01 00:45:44;;;;;;;20.20;14.00;;;;;;;9.55;100.00;98915.61;100967;1313;61857;-72
2022/01/01 00:48:11;;;;;;;18.90;15.50;;;;;;;9.53;100.00;98919.63;101001;1310;75476;-72
2022/01/01 00:50:38;;;;;;;18.80;14.50;;;;;;;9.50;100.00;98920.38;100990;1310;69627;-74
2022/01/01 00:53:05;;;;;;;24.10;17.00;;;;;;;9.44;100.00;98923.02;100941;1309;73146;-73
2022/01/01 00:56:05;;;;;;;20.50;16.10;;;;;;;9.42;100.00;98923.70;102367;1300;600191;-72
2022/01/01 00:58:32;;;;;;;19.40;14.50;;;;;;;9.38;100.00;98922.70;104314;1284;61551;-72
2022/01/01 01:00:58;;;;;;;21.00;16.90;;;;;;;9.37;100.00;98926.01;104011;1284;59384;-73
2022/01/01 01:03:25;;;;;;;22.70;16.50;;;;;;;9.34;100.00;98931.48;104333;1284;59198;-73
2022/01/01 01:05:51;;;;;;;21.30;17.30;;;;;;;9.32;100.00;98939.39;104340;1284;59280;-72
2022/01/01 01:08:18;;;;;;;24.40;17.10;;;;;;;9.32;100.00;98937.14;104299;1284;59325;-72
2022/01/01 01:10:46;;;;;;;23.20;17.90;;;;;;;9.32;100.00;98940.50;104332;1281;214906;-71
2022/01/01 01:13:15;;;;;;;26.90;18.20;;;;;;;9.33;100.00;98946.65;104455;1281;60247;-72
2022/01/01 01:15:43;;;;;;;25.80;17.20;;;;;;;9.34;100.00;98951.02;104543;1281;72842;-70
2022/01/01 01:18:09;;;;;;;22.70;16.40;;;;;;;9.33;100.00;98950.89;104552;1281;70272;-72
2022/01/01 01:20:36;;;;;;;22.80;18.60;;;;;;;9.32;100.00;98952.38;104607;1281;73386;-73
2022/01/01 01:23:03;;;;;;;22.60;17.30;;;;;;;9.31;100.00;98950.84;104617;1280;60075;-70
2022/01/01 01:25:32;;;;;;;25.70;18.70;;;;;;;9.31;100.00;98952.63;104974;1274;61873;-73
2022/01/01 01:28:07;;;;;;;25.70;19.30;;;;;;;9.31;100.00;98956.70;105008;1274;73574;-73
2022/01/01 01:30:38;;;;;;;26.60;18.70;;;;;;;9.31;100.00;98961.80;105052;1274;68833;-73
2022/01/01 01:33:06;;;;;;;24.60;18.80;;;;;;;9.32;100.00;98967.08;105029;1274;73155;-73
2022/01/01 01:35:34;;;;;;;24.20;18.90;;;;;;;9.31;100.00;98968.87;105049;1273;60024;-73
2022/01/01 01:38:02;;;;;;;23.10;19.00;;;;;;;9.33;100.00;98973.02;104792;1274;62104;-73
2022/01/01 01:40:29;;;;;;;25.90;20.40;;;;;;;9.36;100.00;98977.67;105253;1274;74251;-72
2022/01/01 01:42:56;;;;;;;24.50;19.10;;;;;;;9.37;100.00;98983.46;104851;1274;70225;-73
2022/01/01 01:45:27;;;;;;;25.80;20.40;;;;;;;9.37;100.00;98986.08;104809;1275;72734;-71
2022/01/01 01:47:54;;;;;;;24.00;19.90;;;;;;;9.37;100.00;98990.54;105057;1274;60081;-72
2022/01/01 01:50:21;;;;;;;26.30;20.00;;;;;;;9.37;100.00;98994.42;105059;1273;59887;-72
2022/01/01 01:52:57;;;;;;;29.80;21.30;;;;;;;9.36;100.00;98997.33;104904;1275;59741;-72
2022/01/01 01:55:24;;;;;;;26.10;19.50;;;;;;;9.36;100.00;98998.20;104994;1274;70213;-72
2022/01/01 01:57:51;;;;;;;25.00;19.10;;;;;;;9.34;100.00;99000.27;105087;1274;73346;-72
2022/01/01 02:00:46;;;;;;;25.40;19.80;;;;;;;9.33;100.00;99004.27;105111;1274;61525;-72
2022/01/01 02:03:09;;;;;;;27.00;20.90;;;;;;;9.31;100.00;99012.51;105163;1274;60661;-72
2022/01/01 02:05:37;;;;;;;26.00;20.00;;;;;;;9.30;100.00;99017.17;105069;1274;72140;-72
2022/01/01 02:08:05;;;;;;;26.70;20.10;;;;;;;9.31;100.00;99016.10;105627;1274;67740;-72
2022/01/01 02:10:34;;;;;;;27.80;21.10;;;;;;;9.31;100.00;99019.97;106396;1274;73267;-71
2022/01/01 02:13:10;;;;;;;26.50;20.80;;;;;;;9.31;100.00;99018.88;106050;1274;59720;-72
2022/01/01 02:15:59;;;;;;;28.10;21.80;;;;;;;9.31;100.00;99018.95;106400;1273;60796;-71
2022/01/01 02:18:26;;;;;;;28.10;23.40;;;;;;;9.27;100.00;99029.06;105067;1274;74332;-73
2022/01/01 02:20:56;;;;;;;24.80;21.30;;;;;;;9.26;100.00;99025.05;104989;1273;69334;-73
2022/01/01 02:23:25;;;;;;;;;;;;;;;9.27;100.00;99031.74;105225;1274;74355;-72
2022/01/01 02:25:54;;;;;;;25.30;20.00;;;;;;;9.26;100.00;99038.73;105138;1274;60062;-73
2022/01/01 02:28:21;;;;;;;29.30;20.10;;;;;;;9.24;100.00;99041.46;105072;1274;61171;-72
2022/01/01 02:30:49;;;;;;;24.00;19.30;;;;;;;9.23;100.00;99041.35;104957;1274;73947;-72
2022/01/01 02:33:17;;;;;;;22.10;18.10;;;;;;;9.23;100.00;99051.09;104812;1274;69171;-73
2022/01/01 02:35:44;;;;;;;22.60;17.70;;;;;;;9.24;100.00;99052.15;105008;1274;73172;-72
2022/01/01 02:38:10;;;;;;;26.60;20.00;;;;;;;9.25;100.00;99048.38;105003;1274;61072;-71
2022/01/01 02:40:38;;;;;;;23.50;18.10;;;;;;;9.25;100.00;99047.47;104977;1274;59658;-72
2022/01/01 02:43:05;;;;;;;23.00;17.10;;;;;;;9.27;100.00;99050.91;104975;1274;74612;-72
2022/01/01 02:45:32;;;;;;;22.10;18.60;;;;;;;9.28;100.00;99056.70;104994;1274;69171;-72
2022/01/01 02:47:58;;;;;;;18.30;15.00;;;;;;;9.29;100.00;99061.39;104987;1274;73682;-71
2022/01/01 02:50:25;;;;;;;17.70;14.30;;;;;;;9.31;100.00;99066.09;105014;1274;60491;-71
2022/01/01 02:52:52;;;;;;;18.00;14.20;;;;;;;9.35;100.00;99065.48;104985;1274;61304;-72
2022/01/01 02:55:19;;;;;;;17.40;14.30;;;;;;;9.39;100.00;99070.02;105251;1271;73732;-71
2022/01/01 02:57:45;;;;;;;14.70;11.10;;;;;;;9.43;100.00;99072.56;105264;1271;69404;-71
2022/01/01 03:00:28;;;;;;;11.30;10.00;;;;;;;9.47;100.00;99072.00;105251;1270;74281;-73
2022/01/01 03:02:54;;;;;;;10.90;9.30;;;;;;;9.51;100.00;99074.76;105275;1271;59707;-72
2022/01/01 03:05:21;;;;;;;9.70;6.80;;;;;;;9.54;100.00;99076.55;105262;1271;59592;-73
2022/01/01 03:07:47;;;;;;;7.80;5.80;;;;;;;9.57;100.00;99067.51;105300;1271;59564;-72
2022/01/01 03:10:14;;;;;;;5.90;4.90;;;;;;;9.59;100.00;99070.71;105110;1271;68897;-72
2022/01/01 03:12:40;;;;;;;6.10;5.60;;;;;;;9.62;100.00;99079.39;105197;1271;59639;-71
2022/01/01 03:15:07;;;;;;;5.30;4.90;;;;;;;9.65;100.00;99078.86;105244;1271;59567;-72
2022/01/01 03:17:34;;;;;;;6.10;5.50;;;;;;;9.69;100.00;99074.05;105002;1271;60773;-72
2022/01/01 03:20:00;;;;;;;7.20;6.50;;;;;;;9.71;100.00;99075.89;105273;1270;73778;-73
2022/01/01 03:22:27;;;;;;;8.20;6.50;;;;;;;9.73;100.00;99078.05;105248;1270;59664;-72
2022/01/01 03:24:53;;;;;;;6.60;6.00;;;;;;;9.75;100.00;99075.79;105380;1270;59668;-72
2022/01/01 03:27:20;;;;;;;5.60;5.10;;;;;;;9.77;100.00;99077.23;105300;1269;59710;-72
2022/01/01 03:29:46;;;;;;;6.60;5.70;;;;;;;9.77;100.00;99078.50;105318;1270;59602;-71
2022/01/01 03:32:13;;;;;;;6.20;5.60;;;;;;;9.78;100.00;99080.58;105219;1271;59551;-71
2022/01/01 03:34:39;;;;;;;6.70;5.90;;;;;;;9.78;100.00;99075.43;105009;1271;59798;-72
2022/01/01 03:37:06;;;;;;;6.60;5.30;;;;;;;9.77;100.00;99080.10;105285;1269;59526;-71
2022/01/01 03:39:32;;;;;;;5.60;5.10;;;;;;;9.76;100.00;99084.05;105006;1271;59782;-72
2022/01/01 03:41:59;;;;;;;5.80;5.30;;;;;;;9.76;100.00;99087.63;105250;1271;61980;-72
2022/01/01 03:44:26;;;;;;;7.00;6.10;;;;;;;9.77;100.00;99095.39;105513;1271;73661;-72
2022/01/01 03:47:00;;;;;;;7.00;6.30;;;;;;;9.78;100.00;99101.34;105256;1271;70574;-72
2022/01/01 03:49:27;;;;;;;7.10;6.40;;;;;;;9.78;100.00;99104.85;105267;1271;73276;-71
2022/01/01 03:51:53;;;;;;;7.80;7.00;;;;;;;9.80;100.00;99108.31;105290;1271;59823;-72
2022/01/01 03:54:20;;;;;;;9.90;8.90;;;;;;;9.80;100.00;99108.31;105265;1271;61352;-72
2022/01/01 03:56:47;;;;;;;6.30;5.70;;;;;;;9.80;100.00;99110.62;105235;1271;74860;-72
2022/01/01 03:59:14;;;;;;;5.50;5.10;;;;;;;9.81;100.00;99111.94;105078;1271;68544;-71
2022/01/01 04:01:40;;;;;;;5.60;4.90;;;;;;;9.82;100.00;99112.23;104869;1271;73461;-71
2022/01/01 04:04:07;;;;;;;4.60;4.10;;;;;;;9.82;100.00;99112.58;105238;1271;60004;-71
2022/01/01 04:06:33;;;;;;;5.10;4.50;;;;;;;9.84;100.00;99116.06;105217;1271;59656;-72
2022/01/01 04:09:00;;;;;;;5.10;4.50;;;;;;;9.85;100.00;99118.10;105246;1271;74344;-71
2022/01/01 04:11:26;;;;;;;4.50;4.10;;;;;;;9.86;100.00;99116.26;105216;1271;59636;-72
2022/01/01 04:13:53;;;;;;;4.30;3.90;;;;;;;9.87;100.00;99115.85;105229;1271;59625;-71
2022/01/01 04:16:21;;;;;;;4.90;4.40;;;;;;;9.85;100.00;99112.25;105222;1271;59696;-71
2022/01/01 04:18:47;;;;;;;5.90;5.30;;;;;;;9.87;100.00;99118.88;105212;1271;61331;-71
2022/01/01 04:21:15;;;;;;;6.90;5.50;;;;;;;9.88;100.00;99119.16;105222;1271;59531;-72
2022/01/01 04:23:45;;;;;;;5.50;5.00;;;;;;;9.88;100.00;99122.50;105416;1271;70361;-72
2022/01/01 04:26:12;;;;;;;7.00;6.30;;;;;;;9.90;100.00;99124.02;105370;1271;73145;-71
2022/01/01 04:28:40;;;;;;;6.30;5.80;;;;;;;9.90;100.00;99126.13;105087;1271;60858;-72
2022/01/01 04:31:07;;;;;;;6.70;5.90;;;;;;;9.91;100.00;99127.51;105263;1271;60868;-71
2022/01/01 04:33:33;;;;;;;6.10;5.50;;;;;;;9.91;100.00;99125.38;105275;1271;73435;-72
2022/01/01 04:36:00;;;;;;;5.60;5.20;;;;;;;9.92;100.00;99128.17;105253;1270;68681;-71
2022/01/01 04:41:07;;;;;;;6.50;5.20;;;;;;;9.94;100.00;99130.89;105203;1271;60504;-72
2022/01/01 04:43:34;;;;;;;6.60;5.10;;;;;;;9.94;100.00;99134.57;105231;1271;61886;-72
2022/01/01 04:46:01;;;;;;;6.10;5.40;;;;;;;9.95;100.00;99133.48;105281;1271;73707;-71
2022/01/01 04:48:27;;;;;;;5.50;5.10;;;;;;;9.94;100.00;99137.09;105251;1271;69416;-71
2022/01/01 04:50:54;;;;;;;5.70;5.00;;;;;;;9.95;100.00;99139.34;105215;1271;74243;-71
2022/01/01 04:53:21;;;;;;;6.80;5.10;;;;;;;9.95;100.00;99140.16;105222;1271;60479;-72
2022/01/01 04:55:49;;;;;;;9.20;8.40;;;;;;;9.96;100.00;99137.27;105042;1271;61450;-72
2022/01/01 04:58:16;;;;;;;9.80;8.90;;;;;;;9.95;100.00;99141.42;105280;1271;74321;-71
2022/01/01 05:00:43;;;;;;;10.80;9.70;;;;;;;9.94;100.00;99146.50;105047;1271;70059;-71
2022/01/01 05:03:10;;;;;;;9.60;8.70;;;;;;;9.93;100.00;99147.07;105233;1269;74325;-72
2022/01/01 05:05:37;;;;;;;10.30;8.70;;;;;;;9.91;100.00;99148.46;105225;1271;61356;-73
2022/01/01 05:08:03;;;;;;;10.10;7.70;;;;;;;9.86;100.00;99145.70;105258;1271;60771;-71
2022/01/01 05:10:30;;;;;;;11.00;9.00;;;;;;;9.81;100.00;99146.54;105219;1271;73697;-71
2022/01/01 05:12:56;;;;;;;10.50;8.60;;;;;;;9.77;100.00;99144.86;105207;1271;60670;-71
2022/01/01 05:15:23;;;;;;;11.10;9.90;;;;;;;9.73;100.00;99149.03;105242;1271;71942;-72
2022/01/01 05:17:50;;;;;;;10.60;9.50;;;;;;;9.68;100.00;99156.58;104998;1271;61176;-70
2022/01/01 05:20:16;;;;;;;13.10;11.50;;;;;;;9.64;100.00;99158.08;105250;1271;61023;-74
2022/01/01 05:22:43;;;;;;;13.30;10.80;;;;;;;9.60;100.00;99162.17;105282;1271;75117;-72
2022/01/01 05:25:10;;;;;;;10.90;9.70;;;;;;;9.57;100.00;99163.77;105228;1271;60379;-72
2022/01/01 05:27:37;;;;;;;12.20;9.20;;;;;;;9.55;100.00;99164.80;105032;1271;73414;-72
2022/01/01 05:30:04;;;;;;;10.40;9.30;;;;;;;9.51;100.00;99170.73;105300;1271;61253;-71
2022/01/01 05:32:31;;;;;;;10.90;9.00;;;;;;;9.48;100.00;99174.33;105229;1271;60897;-71
2022/01/01 05:34:58;;;;;;;9.10;8.20;;;;;;;9.45;100.00;99177.81;105266;1271;73274;-71
2022/01/01 05:37:25;;;;;;;9.90;8.90;;;;;;;9.41;100.00;99179.30;105267;1270;69154;-72
2022/01/01 05:39:51;;;;;;;9.50;8.40;;;;;;;9.38;100.00;99187.46;105226;1271;74087;-72
2022/01/01 05:42:18;;;;;;;10.10;7.80;;;;;;;9.35;100.00;99182.66;105206;1271;60826;-72
2022/01/01 05:44:45;;;;;;;10.90;8.80;;;;;;;9.33;100.00;99183.50;105253;1270;60443;-72
2022/01/01 05:47:11;;;;;;;9.90;8.30;;;;;;;9.30;100.00;99188.46;105256;1271;74326;-71
2022/01/01 05:49:38;;;;;;;9.60;8.60;;;;;;;9.27;100.00;99192.52;105242;1271;70342;-71
2022/01/01 05:52:05;;;;;;;9.80;8.60;;;;;;;9.25;100.00;99186.45;105193;1271;72788;-73
2022/01/01 05:54:32;;;;;;;13.50;9.90;;;;;;;9.24;100.00;99198.21;105255;1271;60470;-71
2022/01/01 05:57:00;;;;;;;10.50;9.20;;;;;;;9.20;100.00;99202.31;105230;1271;62024;-72
2022/01/01 05:59:26;;;;;;;12.30;9.90;;;;;;;9.18;100.00;99202.98;105212;1271;74362;-71
2022/01/01 06:01:53;;;;;;;11.00;9.50;;;;;;;9.17;100.00;99204.11;105256;1271;60568;-71
2022/01/01 06:04:20;;;;;;;10.30;8.50;;;;;;;9.17;100.00;99203.56;104921;1271;60530;-71
2022/01/01 06:06:46;;;;;;;11.10;8.90;;;;;;;9.17;100.00;99203.08;105226;1271;60792;-71
2022/01/01 06:09:13;;;;;;;10.50;8.80;;;;;;;9.17;100.00;99202.16;105264;1270;61279;-71
2022/01/01 06:11:39;;;;;;;9.90;8.90;;;;;;;9.16;100.00;99204.35;104955;1271;60567;-71
2022/01/01 06:14:06;;;;;;;10.90;9.00;;;;;;;9.15;100.00;99212.02;105231;1271;60432;-71
2022/01/01 06:16:32;;;;;;;11.60;9.40;;;;;;;9.14;100.00;99210.30;105242;1271;60577;-71
2022/01/01 06:18:59;;;;;;;10.90;9.60;;;;;;;9.15;100.00;99212.90;105218;1271;60523;-72
2022/01/01 06:21:25;;;;;;;10.90;9.70;;;;;;;9.14;100.00;99216.70;105227;1271;60496;-72
2022/01/01 06:23:52;;;;;;;11.60;9.90;;;;;;;9.13;100.00;99216.05;105253;1271;73816;-72
2022/01/01 06:26:19;;;;;;;14.10;12.60;;;;;;;9.13;100.00;99220.30;105013;1271;70411;-72
2022/01/01 06:28:45;;;;;;;11.30;9.60;;;;;;;9.13;100.00;99222.98;105209;1271;73498;-72
2022/01/01 06:31:12;;;;;;;9.90;8.60;;;;;;;9.13;100.00;99227.05;105214;1271;60562;-71
2022/01/01 06:33:38;;;;;;;12.00;9.60;;;;;;;9.13;100.00;99228.25;105235;1271;60497;-71
2022/01/01 06:36:05;;;;;;;11.10;9.80;;;;;;;9.16;100.00;99231.65;105250;1271;60462;-71
2022/01/01 06:38:31;;;;;;;11.00;9.90;;;;;;;9.18;100.00;99232.75;105027;1274;60517;-71
2022/01/01 06:40:58;;;;;;;12.00;9.80;;;;;;;9.21;100.00;99245.54;105235;1271;73457;-72
2022/01/01 06:43:24;;;;;;;11.80;9.50;;;;;;;9.24;100.00;99241.66;105247;1270;60450;-72
2022/01/01 06:45:51;;;;;;;14.60;10.00;;;;;;;9.27;100.00;99242.21;105233;1271;60547;-71
2022/01/01 06:48:17;;;;;;;10.90;9.70;;;;;;;9.29;100.00;99245.45;105238;1271;60450;-72
2022/01/01 06:50:44;;;;;;;12.70;9.50;;;;;;;9.31;100.00;99248.37;105266;1271;60503;-72
2022/01/01 06:53:11;;;;;;;10.30;8.90;;;;;;;9.31;100.00;99256.14;105233;1271;73374;-71
2022/01/01 06:55:38;;;;;;;12.10;10.10;;;;;;;9.31;100.00;99259.52;105252;1271;60506;-72
2022/01/01 06:58:05;;;;;;;10.90;9.50;;;;;;;9.31;100.00;99257.05;105222;1271;60763;-72
2022/01/01 07:00:31;;;;;;;13.10;9.90;;;;;;;9.30;100.00;99258.49;105226;1271;60338;-73
2022/01/01 07:02:58;;;;;;;13.00;10.80;;;;;;;9.30;100.00;99258.86;105072;1272;69438;-72
2022/01/01 07:05:25;;;;;;;13.40;11.00;;;;;;;9.30;100.00;99262.98;105291;1271;73432;-71
2022/01/01 07:07:51;;;;;;;12.50;10.40;;;;;;;9.31;100.00;99269.44;105019;1272;61192;-73
2022/01/01 07:10:18;;;;;;;13.50;10.30;;;;;;;9.32;100.00;99272.39;105291;1271;62150;-71
2022/01/01 07:12:44;;;;;;;13.60;10.80;;;;;;;9.33;100.00;99269.99;105275;1271;74660;-71
2022/01/01 07:15:11;;;;;;;12.40;9.40;;;;;;;9.36;100.00;99267.90;105054;1274;67751;-73
2022/01/01 07:17:38;;;;;;;13.70;10.90;;;;;;;9.37;100.00;99273.35;105401;1271;73450;-72
2022/01/01 07:20:06;;;;;;;12.70;10.80;;;;;;;9.37;100.00;99274.21;105355;1271;60376;-72
2022/01/01 07:22:41;;;;;;;15.00;11.40;;;;;;;9.37;100.00;99277.40;105385;1271;61895;-72
2022/01/01 07:25:09;;;;;;;14.50;13.00;;;;;;;9.38;100.00;99280.02;105496;1271;75545;-73
2022/01/01 07:27:37;;;;;;;11.90;9.90;;;;;;;9.39;100.00;99284.91;106471;1270;70485;-71
2022/01/01 07:30:05;;;;;;;14.20;11.80;;;;;;;9.41;100.00;99285.89;105871;1271;73405;-71
2022/01/01 07:32:32;;;;;;;14.50;11.10;;;;;;;9.42;100.00;99285.81;106189;1271;60453;-72
2022/01/01 07:34:58;;;;;;;17.80;13.60;;;;;;;9.45;100.00;99279.26;108323;1271;59097;-73
2022/01/01 07:37:25;;;;;;;12.90;11.50;;;;;;;9.47;100.00;99287.30;108227;1271;58374;-71
2022/01/01 07:39:51;;;;;;;15.50;12.00;;;;;;;9.49;100.00;99295.86;105429;1271;60586;-71
2022/01/01 07:42:18;;;;;;;15.80;12.40;;;;;;;9.52;100.00;99296.97;105423;1271;60489;-72
2022/01/01 07:44:45;;;;;;;14.40;12.30;;;;;;;9.56;100.00;99295.81;105339;1271;60562;-71
2022/01/01 07:47:11;;;;;;;11.50;9.30;;;;;;;9.60;100.00;99300.94;105116;1271;60360;-71
2022/01/01 07:49:38;;;;;;;15.50;12.30;;;;;;;9.62;100.00;99298.15;105300;1271;75143;-71
2022/01/01 07:52:04;;;;;;;14.10;11.50;;;;;;;9.64;100.00;99295.73;105319;1271;70187;-72
2022/01/01 07:54:31;;;;;;;14.00;11.70;;;;;;;9.64;100.00;99298.56;105262;1271;73364;-72
2022/01/01 07:56:58;;;;;;;15.60;12.30;;;;;;;9.66;100.00;99293.83;105254;1270;60548;-72
2022/01/01 07:59:24;;;;;;;18.00;13.40;;;;;;;9.67;100.00;99300.48;105259;1271;60565;-72
2022/01/01 08:01:51;;;;;;;14.30;10.40;;;;;;;9.68;100.00;99305.23;105233;1271;73956;-71
2022/01/01 08:04:17;;;;;;;14.40;12.60;;;;;;;9.68;100.00;99310.02;105230;1271;70131;-73
2022/01/01 08:06:44;;;;;;;22.00;16.60;;;;;;;9.67;100.00;99309.21;105215;1270;60329;-74
2022/01/01 08:09:11;;;;;;;22.10;18.00;;;;;;;9.67;100.00;99313.27;105246;1271;60494;-72
2022/01/01 08:11:38;;;;;;;17.10;13.60;;;;;;;9.67;100.00;99314.71;105266;1270;60993;-71
2022/01/01 08:14:05;;;;;;;15.70;13.60;;;;;;;9.67;100.00;99315.92;105263;1271;60459;-71
2022/01/01 08:16:32;;;;;;;14.20;12.30;;;;;;;9.66;100.00;99316.53;105202;1271;69175;-71
2022/01/01 08:18:58;;;;;;;14.60;13.10;;;;;;;9.64;100.00;99320.73;105274;1271;60490;-73
2022/01/01 08:21:24;;;;;;;14.20;12.70;;;;;;;9.64;100.00;99328.89;105232;1271;60465;-72
2022/01/01 08:23:51;;;;;;;15.20;12.60;;;;;;;9.65;100.00;99327.96;105331;1271;60354;-71
2022/01/01 08:26:17;;;;;;;14.20;12.70;;;;;;;9.63;100.00;99329.64;105368;1271;60516;-71
2022/01/01 08:28:44;;;;;;;14.10;11.00;;;;;;;9.62;100.00;99334.13;105390;1271;60478;-73
2022/01/01 08:31:11;;;;;;;11.30;9.20;;;;;;;9.62;100.00;99332.02;105247;1271;60463;-73
2022/01/01 08:33:37;;;;;;;11.60;9.90;;;;;;;9.63;100.00;99331.61;105235;1271;60357;-71
2022/01/01 08:36:05;;;;;;;11.50;10.00;;;;;;;9.65;100.00;99335.55;105262;1270;60761;-71
2022/01/01 08:38:32;;;;;;;12.10;10.40;;;;;;;9.71;100.00;99329.75;105329;1271;72925;-71
2022/01/01 08:40:59;;;;;;;11.60;10.40;;;;;;;9.71;100.00;99334.94;105262;1271;69900;-72
2022/01/01 08:43:26;;;;;;;11.00;8.80;;;;;;;9.68;100.00;99340.17;105131;1271;74172;-71
2022/01/01 08:45:53;;;;;;;10.90;8.70;;;;;;;9.68;100.00;99342.14;105239;1271;60492;-71
2022/01/01 08:48:20;;;;;;;9.80;8.60;;;;;;;9.68;100.00;99346.60;105232;1271;60567;-72
2022/01/01 08:50:47;;;;;;;10.20;9.10;;;;;;;9.66;100.00;99348.64;105262;1271;74436;-72
2022/01/01 08:53:14;;;;;;;9.90;8.80;;;;;;;9.68;100.00;99355.59;105258;1271;70651;-72
2022/01/01 08:55:41;;;;;;;12.10;10.20;;;;;;;9.74;100.00;99353.17;105256;1271;73359;-72
2022/01/01 08:58:07;;;;;;;12.80;10.70;;;;;;;9.82;100.00;99354.45;105250;1271;60376;-72
2022/01/01 09:00:34;;;;;;;12.80;10.10;;;;;;;9.90;100.00;99359.14;105215;1271;60363;-72
2022/01/01 09:03:00;;;;;;;12.40;10.40;;;;;;;9.98;100.00;99361.69;105235;1271;60481;-73
2022/01/01 09:05:27;;;;;;;15.80;12.40;;;;;;;10.01;100.00;99365.95;105231;1270;60553;-72
2022/01/01 09:07:54;;;;;;;12.50;11.20;;;;;;;10.01;100.00;99367.79;105203;1271;74603;-72
2022/01/01 09:10:21;;;;;;;12.80;11.00;;;;;;;10.03;100.00;99367.27;105223;1271;60446;-72
2022/01/01 09:12:47;;;;;;;11.10;10.00;;;;;;;10.07;100.00;99370.04;105223;1271;60369;-72
2022/01/01 09:15:14;;;;;;;10.20;8.60;;;;;;;10.12;100.00;99375.45;105265;1271;60446;-72
2022/01/01 09:17:41;;;;;;;10.40;9.20;;;;;;;10.13;100.00;99378.05;105272;1270;69418;-72
2022/01/01 09:20:07;;;;;;;11.50;9.50;;;;;;;10.13;100.00;99377.73;105212;1271;74644;-72
2022/01/01 09:22:34;;;;;;;12.70;11.20;;;;;;;10.09;100.00;99382.36;105208;1271;60590;-73
2022/01/01 09:25:01;;;;;;;15.30;12.40;;;;;;;10.06;100.00;99381.13;105242;1271;60872;-72
2022/01/01 09:27:27;;;;;;;12.70;11.40;;;;;;;10.04;100.00;99385.34;105210;1270;60488;-71
2022/01/01 09:29:54;;;;;;;12.70;11.00;;;;;;;10.03;100.00;99380.58;105284;1271;60640;-72
2022/01/01 09:32:20;;;;;;;13.20;11.50;;;;;;;10.06;100.00;99378.62;105254;1271;74326;-72
2022/01/01 09:34:47;;;;;;;16.40;12.80;;;;;;;10.14;100.00;99376.91;105288;1271;60555;-72
2022/01/01 09:37:13;;;;;;;14.00;11.80;;;;;;;10.20;100.00;99377.63;105302;1270;61160;-73
2022/01/01 09:39:40;;;;;;;12.80;10.50;;;;;;;10.24;100.00;99383.94;105262;1271;74506;-72
2022/01/01 09:42:10;;;;;;;14.00;11.80;;;;;;;10.28;100.00;99388.02;104990;1271;69043;-72
2022/01/01 09:44:39;;;;;;;19.60;14.60;;;;;;;10.34;100.00;99388.56;105355;1271;72981;-72
2022/01/01 09:47:06;;;;;;;17.20;13.40;;;;;;;10.41;100.00;99394.02;105558;1271;61237;-72
2022/01/01 09:49:33;;;;;;;16.40;13.80;;;;;;;10.45;100.00;99388.63;105020;1274;60796;-72
2022/01/01 09:52:00;;;;;;;16.40;13.60;;;;;;;10.47;100.00;99391.33;105527;1271;74569;-72
2022/01/01 09:54:30;;;;;;;14.30;12.10;;;;;;;10.50;100.00;99387.91;105325;1270;69305;-71
2022/01/01 09:56:57;;;;;;;10.70;9.40;;;;;;;10.52;100.00;99392.24;105774;1271;71712;-80
2022/01/01 09:59:24;;;;;;;10.30;9.20;;;;;;;10.50;100.00;99399.28;105695;1271;60478;-84
2022/01/01 10:01:50;;;;;;;8.10;7.10;;;;;;;10.48;100.00;99395.55;105527;1271;60852;-74
2022/01/01 10:04:18;;;;;;;7.00;6.30;;;;;;;10.46;100.00;99397.77;105384;1271;74837;-69
2022/01/01 10:07:03;;;;;;;6.30;5.70;;;;;;;10.46;100.00;99400.97;105434;1271;70150;-83
2022/01/01 10:09:32;;;;;;;5.50;5.00;;;;;;;10.47;100.00;99396.69;105457;1271;73240;-73
2022/01/01 10:12:00;;;;;;;6.80;5.40;;;;;;;10.51;100.00;99393.42;105586;1271;60551;-74
2022/01/01 10:14:34;;;;;;;5.00;4.50;;;;;;;10.53;100.00;99392.56;105478;1271;60465;-78
2022/01/01 10:17:12;;;;;;;4.80;4.00;;;;;;;10.54;100.00;99392.14;105568;1271;74635;-79
2022/01/01 10:19:39;;;;;;;4.60;4.10;;;;;;;10.54;100.00;99390.17;105171;1271;69219;-79
2022/01/01 10:22:07;;;;;;;5.30;4.30;;;;;;;10.56;100.00;99393.45;105365;1271;71674;-78
2022/01/01 10:30:04;;;;;;;6.80;6.10;;;;;;;10.71;100.00;99398.02;105754;1271;75591;-80
2022/01/01 10:32:31;;;;;;;7.20;6.20;;;;;;;10.74;100.00;99398.05;105687;1271;69299;-79
2022/01/01 10:34:59;;;;;;;8.50;6.50;;;;;;;10.75;100.00;99393.87;105470;1271;72726;-78
2022/01/01 10:37:29;;;;;;;8.00;6.30;;;;;;;10.78;100.00;99398.52;105372;1271;60476;-75
2022/01/01 10:39:55;;;;;;;6.60;6.00;;;;;;;10.76;100.00;99402.54;105430;1271;60802;-80
2022/01/01 10:42:22;;;;;;;7.70;6.50;;;;;;;10.76;100.00;99402.55;105408;1271;74398;-79
2022/01/01 10:44:53;;;;;;;6.50;5.40;;;;;;;10.74;100.00;99398.74;105402;1271;66500;-78
2022/01/01 10:47:27;;;;;;;7.00;4.90;;;;;;;10.70;100.00;99404.67;105499;1271;73781;-79
2022/01/01 10:52:46;;;;;;;7.60;6.10;;;;;;;10.59;100.00;99405.01;105443;1271;62351;-77
2022/01/01 10:55:16;;;;;;;6.00;5.10;;;;;;;10.57;100.00;99404.25;105385;1271;76269;-77
2022/01/01 10:57:58;;;;;;;6.40;5.40;;;;;;;10.55;100.00;99405.95;105412;1271;69473;-78
2022/01/01 11:00:26;;;;;;;7.40;5.20;;;;;;;10.51;100.00;99409.95;105304;1271;72965;-74
2022/01/01 11:02:55;;;;;;;7.00;5.00;;;;;;;10.48;100.00;99410.80;105361;1271;61783;-76
2022/01/01 11:05:41;;;;;;;5.10;4.40;;;;;;;10.45;100.00;99412.08;105351;1271;61533;-77
2022/01/01 11:08:09;;;;;;;5.20;4.50;;;;;;;10.40;100.00;99408.06;105347;1271;74046;-79
2022/01/01 11:10:37;;;;;;;7.90;5.90;;;;;;;10.39;100.00;99406.38;105084;1271;69333;-74
2022/01/01 11:13:06;;;;;;;6.60;5.10;;;;;;;10.40;100.00;99408.98;105386;1271;73397;-79
2022/01/01 11:15:33;;;;;;;6.30;5.20;;;;;;;10.42;100.00;99406.39;105755;1271;60730;-79
2022/01/01 11:18:01;;;;;;;8.00;5.60;;;;;;;10.44;100.00;99405.21;105159;1271;60475;-74
2022/01/01 11:20:34;;;;;;;8.00;5.30;;;;;;;10.47;100.00;99400.58;105441;1271;75515;-73
2022/01/01 11:23:09;;;;;;;8.50;6.90;;;;;;;10.53;100.00;99399.66;105689;1271;71194;-73
2022/01/01 11:25:37;;;;;;;15.20;13.40;;;;;;;10.62;100.00;99395.57;105340;1270;72957;-75
2022/01/01 11:28:07;;;;;;;13.80;11.30;;;;;;;10.70;100.00;99395.79;105346;1271;60565;-74